METAR Data
IDs: Format: Raw Decoded Include TAF

Data at: 0436 UTC 21 Sep 2018

KT82 210415Z AUTO 15005KT 10SM OVC007 23/22 A2998 RMK AO2 T02320215
KT82 210355Z AUTO 14006KT 10SM OVC007 23/22 A2998 RMK AO2 T02320215
KT82 210335Z AUTO 13006KT 10SM OVC007 23/21 A2998 RMK AO2 T02320214
KT82 210315Z AUTO 14005KT 10SM OVC007 23/22 A2998 RMK AO2 T02320215
KT82 210255Z AUTO 14005KT 10SM OVC007 23/21 A2998 RMK AO2 T02320213
KT82 210235Z AUTO 14006KT 10SM OVC007 23/21 A2997 RMK AO2 T02310213
KT82 210215Z AUTO 14006KT 10SM OVC007 23/21 A2997 RMK AO2 LTG DSNT SE T02300212
KT82 210155Z AUTO 14007KT 10SM OVC007 23/21 A2996 RMK AO2 T02300211
KT82 210135Z AUTO 14004KT 10SM OVC007 23/21 A2996 RMK AO2 T02280210
KT82 210115Z AUTO 13006KT 10SM OVC007 23/21 A2994 RMK AO2 T02300210
KT82 210055Z AUTO 14005KT 10SM OVC009 23/21 A2994 RMK AO2 T02330211
KT82 210035Z AUTO 14006KT 10SM BKN011 BKN031 24/21 A2994 RMK AO2 T02350206
KT82 210015Z AUTO 13008KT 10SM SCT021 SCT031 SCT041 24/21 A2993 RMK AO2 T02420205
KT82 202355Z AUTO 14003KT 10SM SCT021 SCT031 BKN041 25/21 A2992 RMK AO2 T02450208 10277 20227
KT82 202335Z AUTO 14003KT 10SM CLR 25/21 A2992 RMK AO2 T02450207
KT82 202315Z AUTO 14004KT 10SM SCT070 SCT085 25/20 A2992 RMK AO2 T02450203
KT82 202255Z AUTO 15004KT 10SM SCT070 OVC085 25/21 A2992 RMK AO2 T02460205
KT82 202235Z AUTO 17006KT 10SM BKN070 OVC080 25/20 A2992 RMK AO2 LTG DSNT E T02450203
KT82 202215Z AUTO 19006KT 10SM SCT023 BKN075 OVC100 24/20 A2993 RMK AO2 T02360200
KT82 202155Z AUTO 18010G17KT 7SM DZ SCT021 BKN026 OVC070 24/20 A2993 RMK AO2 T02350199
KT82 202135Z AUTO 16006KT 10SM BKN023 BKN041 OVC055 25/21 A2993 RMK AO2 T02470210
KT82 202115Z AUTO 18007KT 10SM SCT026 BKN044 BKN050 26/20 A2993 RMK AO2 T02620201
KT82 202055Z AUTO 18011G17KT 10SM SCT023 SCT031 SCT041 27/19 A2993 RMK AO2 LTG DSNT W T02700193
KT82 202035Z AUTO 17013KT 10SM -RA SCT023 SCT037 BKN060 26/21 A2993 RMK AO2 LTG DSNT NE T02630207
KT82 202015Z AUTO 17006KT 10SM -DZ SCT025 BKN032 BKN043 26/21 A2994 RMK AO2 LTG DSNT E T02610208
KT82 201955Z AUTO 16006KT 10SM BKN032 BKN043 OVC080 27/20 A2994 RMK AO2 T02670199
KT82 201935Z AUTO 16009G14KT 10SM SCT028 SCT035 BKN085 28/20 A2995 RMK AO2 T02750202
KT82 201915Z AUTO 17010KT 10SM SCT027 BKN032 OVC090 27/21 A2996 RMK AO2 T02720209
KT82 201855Z AUTO 16008KT 10SM SCT035 SCT060 OVC085 25/22 A2997 RMK AO2 LTG DSNT SE T02510222
KT82 201835Z AUTO 14005KT 10SM SCT021 BKN055 OVC085 23/21 A2998 RMK AO2 T02300210
KT82 201815Z AUTO 15006KT 7SM -VCTSRA SCT018 BKN025 OVC050 24/21 A2999 RMK AO2 LTG DSNT NE AND E T02350212
KT82 201755Z AUTO 16005KT 3SM +RA SCT022 BKN035 OVC050 23/20 A2999 RMK AO2 60001 T02340197 10273 20228
KT82 201735Z AUTO 19010KT 10SM SCT024 BKN031 BKN050 27/21 A3000 RMK AO2 LTG DSNT E T02720205
KT82 201715Z AUTO 16008KT 10SM SCT015 BKN025 OVC031 26/21 A3000 RMK AO2 LTG DSNT E T02610207
KT82 201655Z AUTO 16005KT 10SM SCT015 BKN021 BKN025 26/21 A3001 RMK AO2 LTG DSNT NE T02570211
KT82 201635Z AUTO 20006KT 10SM -RA SCT017 SCT030 SCT041 25/22 A3001 RMK AO2 T02490215
KT82 201615Z AUTO 20008KT 10SM RA SCT017 SCT032 BKN041 25/21 A3001 RMK AO2 T02520211
KT82 201555Z AUTO 17006KT 10SM -RA BKN019 BKN036 OVC110 25/21 A3001 RMK AO2 T02470210
KT82 201535Z AUTO 20011KT 10SM -RA BKN017 BKN026 OVC060 25/21 A3002 RMK AO2 LTG DSNT SE AND S T02540210
KT82 201515Z AUTO 20006KT 10SM -RA BKN015 BKN024 OVC120 25/21 A3001 RMK AO2 LTG DSNT S T02500211
KT82 201455Z AUTO 20009KT 10SM BKN013 BKN019 25/21 A3000 RMK AO2 LTG DSNT S P0001 60001 T02450210
KT82 201435Z AUTO 17006KT 10SM BKN013 OVC021 24/21 A3000 RMK AO2 T02420212
KT82 201415Z AUTO 00000KT 10SM SCT013 OVC019 24/21 A3000 RMK AO2 T02370211
KT82 201355Z AUTO 00000KT 10SM SCT014 BKN024 BKN029 23/21 A2999 RMK AO2 T02310211
KT82 201335Z AUTO 00000KT 10SM SCT012 SCT020 23/21 A2999 RMK AO2 LTG DSNT SE T02300210
KT82 201315Z AUTO 13003KT 10SM BKN012 BKN022 23/21 A2999 RMK AO2 LTG DSNT SE T02300210
KT82 201255Z AUTO 00000KT 10SM BKN014 BKN018 23/21 A2998 RMK AO2 LTG DSNT SE T02280208
KT82 201235Z AUTO 00000KT 10SM BKN013 BKN019 OVC023 23/21 A2998 RMK AO2 T02290207
KT82 201215Z AUTO 00000KT 10SM SCT018 BKN025 23/21 A2997 RMK AO2 T02300207
KT82 201155Z AUTO 18004KT 10SM SCT014 23/21 A2997 RMK AO2 LTG DSNT S T02300207 10242 20230
KT82 201135Z AUTO 00000KT 10SM BKN014 23/21 A2997 RMK AO2 LTG DSNT W T02320207
KT82 201115Z AUTO 17005KT 10SM OVC014 23/21 A2997 RMK AO2 T02340207
KT82 201055Z AUTO 18008KT 10SM OVC014 24/21 A2997 RMK AO2 LTG DSNT W T02350207
KT82 201035Z AUTO 17004KT 10SM BKN014 OVC021 23/21 A2997 RMK AO2 T02330209
KT82 201015Z AUTO 16003KT 10SM BKN014 OVC023 23/21 A2996 RMK AO2 LTG DSNT SW T02320208
KT82 200955Z AUTO 17004KT 10SM BKN012 OVC025 23/21 A2997 RMK AO2 T02310210
KT82 200935Z AUTO 16003KT 10SM BKN012 23/21 A2997 RMK AO2 T02320210
KT82 200915Z AUTO 16003KT 10SM CLR 23/21 A2997 RMK AO2 T02310208
KT82 200855Z AUTO 17006KT 10SM SCT110 23/21 A2997 RMK AO2 T02330206
KT82 200835Z AUTO 18004KT 10SM SCT014 BKN110 23/21 A2997 RMK AO2 T02330205
KT82 200815Z AUTO 15003KT 10SM SCT014 23/21 A2998 RMK AO2 T02330205
KT82 200755Z AUTO 15004KT 10SM SCT018 24/20 A2999 RMK AO2 T02350204
KT82 200735Z AUTO 16005KT 10SM SCT018 24/20 A2999 RMK AO2 T02350204
KT82 200715Z AUTO 17004KT 10SM CLR 24/21 A2999 RMK AO2 T02350206
KT82 200655Z AUTO 16003KT 10SM CLR 24/21 A2999 RMK AO2 T02370207
KT82 200635Z AUTO 00000KT 10SM CLR 24/21 A2999 RMK AO2 T02400206
KT82 200615Z AUTO 18006KT 10SM SCT015 SCT022 BKN030 24/21 A2999 RMK AO2 T02400208
KT82 200555Z AUTO 17007KT 10SM BKN017 BKN022 OVC031 24/21 A3000 RMK AO2 T02420210 10290 20235 403100207
KT82 200535Z AUTO 00000KT 10SM SCT017 SCT023 BKN032 24/21 A3000 RMK AO2 T02410206
KT82 200515Z AUTO 00000KT 10SM CLR 24/21 A3000 RMK AO2 T02410205
KT82 200455Z AUTO 00000KT 10SM CLR 24/20 A2999 RMK AO2 T02390200
KT82 200435Z AUTO 00000KT 10SM SCT039 24/20 A2999 RMK AO2 T02360196
KT82 200415Z AUTO 00000KT 10SM SCT039 SCT047 SCT060 24/20 A2999 RMK AO2 T02370195
KT82 200355Z AUTO 00000KT 10SM SCT041 SCT050 BKN065 24/19 A2999 RMK AO2 T02370193
KT82 200335Z AUTO 00000KT 10SM SCT041 SCT050 24/19 A2999 RMK AO2 T02410192
KT82 200315Z AUTO 00000KT 10SM CLR 24/19 A2998 RMK AO2 T02440192
KT82 200255Z AUTO 00000KT 10SM SCT041 SCT050 25/19 A2997 RMK AO2 T02470190
KT82 200235Z AUTO 00000KT 10SM SCT043 BKN050 OVC060 25/19 A2997 RMK AO2 T02490190
KT82 200215Z AUTO 00000KT 10SM BKN045 25/19 A2996 RMK AO2 T02530187
KT82 200155Z AUTO 00000KT 10SM SCT045 26/19 A2995 RMK AO2 T02550185
KT82 200135Z AUTO 11003KT 10SM CLR 26/18 A2994 RMK AO2 T02570183
KT82 200115Z AUTO 00000KT 10SM CLR 27/18 A2994 RMK AO2 T02650180
KT82 200055Z AUTO 00000KT 10SM CLR 27/18 A2994 RMK AO2 T02690178
KT82 200035Z AUTO 16004KT 10SM CLR 28/17 A2995 RMK AO2 T02750174
KT82 200015Z AUTO 16005KT 10SM SCT060 28/17 A2994 RMK AO2 T02830170
KT82 192355Z AUTO 16005KT 10SM BKN060 29/18 A2994 RMK AO2 T02900177 10310 20287
KT82 192335Z AUTO 16007KT 10SM SCT060 29/17 A2994 RMK AO2 T02910170
KT82 192315Z AUTO 15006KT 10SM CLR 29/17 A2993 RMK AO2 T02940171
KT82 192255Z AUTO 16007G14KT 10SM SCT049 SCT055 29/18 A2993 RMK AO2 T02940176
KT82 192235Z AUTO 17004KT 10SM SCT049 SCT055 30/17 A2993 RMK AO2 T02990173
KT82 192215Z AUTO 17008KT 10SM SCT050 29/17 A2993 RMK AO2 T02910173
KT82 192155Z AUTO 00000KT 10SM BKN050 30/17 A2994 RMK AO2 T02960173
KT82 192135Z AUTO 16005KT 10SM BKN050 30/17 A2994 RMK AO2 T02990174
KT82 192115Z AUTO 16008KT 10SM BKN048 30/18 A2994 RMK AO2 T03000177
KT82 192055Z AUTO 16006KT 10SM SCT050 30/17 A2995 RMK AO2 T02990174
KT82 192035Z AUTO 17006KT 10SM BKN048 31/18 A2996 RMK AO2 T03050177
KT82 192015Z AUTO 00000KT 10SM BKN048 30/17 A2997 RMK AO2 T03030174
KT82 191955Z AUTO 19009KT 10SM BKN048 31/17 A2997 RMK AO2 T03050174
KT82 191935Z AUTO 18008KT 10SM SCT046 31/18 A2998 RMK AO2 T03060177
KT82 191915Z AUTO 17003KT 10SM SCT044 30/18 A2999 RMK AO2 T03030176
KT82 191855Z AUTO 16007KT 120V210 10SM BKN042 30/18 A3000 RMK AO2 T02990180
KT82 191835Z AUTO 16005KT 10SM BKN042 29/18 A3000 RMK AO2 T02900179
KT82 191815Z AUTO 19007KT 10SM BKN040 29/19 A3002 RMK AO2 T02910185
KT82 191755Z AUTO 21005KT 10SM SCT036 29/19 A3002 RMK AO2 T02900186 10290 20211
KT82 191735Z AUTO 17006KT 10SM BKN034 29/18 A3003 RMK AO2 T02860184
KT82 191715Z AUTO 20007KT 10SM SCT032 28/19 A3004 RMK AO2 T02840188
KT82 191655Z AUTO 18004KT 10SM SCT030 28/19 A3004 RMK AO2 T02760188